createdAt,value
2019-05-20T00:01:40.995Z,99095.95
2019-05-20T00:04:10.394Z,99100.66
2019-05-20T00:06:42.173Z,99098.20
2019-05-20T00:09:11.610Z,99097.84
2019-05-20T00:11:41.028Z,99092.10
2019-05-20T00:14:10.438Z,99089.64
2019-05-20T00:16:39.736Z,99087.17
2019-05-20T00:19:09.312Z,99085.34
2019-05-20T00:21:38.744Z,99083.19
2019-05-20T00:24:08.108Z,99078.13
2019-05-20T00:26:37.382Z,99075.20
2019-05-20T00:29:06.750Z,99073.90
2019-05-20T00:31:36.108Z,99065.59
2019-05-20T00:34:05.531Z,99063.34
2019-05-20T00:36:35.040Z,99065.46
2019-05-20T00:39:21.455Z,99065.46
2019-05-20T00:41:51.157Z,99062.86
2019-05-20T00:44:20.538Z,99055.05
2019-05-20T00:46:50.024Z,99051.77
2019-05-20T00:49:19.339Z,99054.38
2019-05-20T00:51:48.734Z,99052.86
2019-05-20T00:54:18.156Z,99048.75
2019-05-20T00:56:49.719Z,99051.98
2019-05-20T00:59:19.103Z,99052.25
2019-05-20T01:01:48.692Z,99048.98
2019-05-20T01:04:18.258Z,99052.66
2019-05-20T01:06:47.582Z,99056.56
2019-05-20T01:09:17.006Z,99061.28
2019-05-20T01:11:46.325Z,99057.73
2019-05-20T01:14:15.697Z,99057.38
2019-05-20T01:16:45.107Z,99064.52
2019-05-20T01:19:14.469Z,99062.54
2019-05-20T01:21:43.845Z,99067.53
2019-05-20T01:24:13.173Z,99061.97
2019-05-20T01:26:42.562Z,99063.41
2019-05-20T01:29:11.939Z,99060.62
2019-05-20T01:31:41.259Z,99068.21
2019-05-20T01:34:10.485Z,99064.31
2019-05-20T01:36:39.943Z,99062.66
2019-05-20T01:39:09.354Z,99059.24
2019-05-20T01:41:38.816Z,99055.48
2019-05-20T01:44:08.294Z,99043.91
2019-05-20T01:46:37.713Z,99033.95
2019-05-20T01:49:07.003Z,99042.82
2019-05-20T01:51:36.369Z,99039.59
2019-05-20T01:54:05.777Z,99038.83
2019-05-20T01:56:35.013Z,99037.88
2019-05-20T01:59:04.392Z,99030.70
2019-05-20T02:01:33.732Z,99036.99
2019-05-20T02:04:03.054Z,99029.19
2019-05-20T02:06:32.361Z,99023.31
2019-05-20T02:09:01.649Z,99023.23
2019-05-20T02:11:31.854Z,99030.68
2019-05-20T02:14:02.820Z,99033.14
2019-05-20T02:16:32.202Z,99033.06
2019-05-20T02:19:01.659Z,99027.05
2019-05-20T02:21:31.070Z,99026.42
2019-05-20T02:24:00.359Z,99021.58
2019-05-20T02:26:29.746Z,99025.20
2019-05-20T02:28:59.080Z,99022.60
2019-05-20T02:31:28.437Z,99028.70
2019-05-20T02:33:57.798Z,99018.02
2019-05-20T02:36:27.119Z,99018.91
2019-05-20T02:38:56.484Z,99025.83
2019-05-20T02:41:26.430Z,99021.97
2019-05-20T02:43:55.931Z,99020.61
2019-05-20T02:46:25.400Z,99022.30
2019-05-20T02:48:54.812Z,99028.67
2019-05-20T02:51:33.052Z,99032.16
2019-05-20T02:54:02.936Z,99034.44
2019-05-20T02:56:32.470Z,99026.41
2019-05-20T02:59:02.279Z,99034.09
2019-05-20T03:01:31.620Z,99037.05
2019-05-20T03:04:11.685Z,99041.13
2019-05-20T03:06:32.956Z,99033.87
2019-05-20T03:09:02.323Z,99025.44
2019-05-20T03:11:31.607Z,99029.55
2019-05-20T03:14:00.991Z,99028.11
2019-05-20T03:16:30.508Z,99025.23
2019-05-20T03:18:59.888Z,99028.64
2019-05-20T03:21:29.388Z,99031.59
2019-05-20T03:23:58.693Z,99029.94
2019-05-20T03:26:28.056Z,99029.03
2019-05-20T03:28:57.603Z,99027.73
2019-05-20T03:31:26.972Z,99024.11
2019-05-20T03:33:56.257Z,99026.71
2019-05-20T03:36:25.653Z,99021.22
2019-05-20T03:38:54.963Z,99026.00
2019-05-20T03:41:24.307Z,99030.79
2019-05-20T03:43:53.633Z,99035.11
2019-05-20T03:46:22.997Z,99034.83
2019-05-20T03:48:52.362Z,99032.55
2019-05-20T03:51:21.753Z,99032.75
2019-05-20T03:53:51.116Z,99036.23
2019-05-20T03:56:20.464Z,99035.14
2019-05-20T03:58:49.808Z,99042.55
2019-05-20T04:01:19.029Z,99041.78
2019-05-20T04:03:48.372Z,99043.43
2019-05-20T04:06:17.734Z,99044.91
2019-05-20T04:08:47.093Z,99043.00
2019-05-20T04:11:16.457Z,99039.91
2019-05-20T04:13:45.774Z,99045.61
2019-05-20T04:16:15.209Z,99039.76
2019-05-20T04:18:44.615Z,99042.36
2019-05-20T04:21:13.975Z,99050.84
2019-05-20T04:23:43.427Z,99056.54
2019-05-20T04:26:12.844Z,99052.27
2019-05-20T04:28:42.129Z,99051.88
2019-05-20T04:31:11.496Z,99048.77
2019-05-20T04:33:40.885Z,99044.94
2019-05-20T04:36:10.293Z,99044.31
2019-05-20T04:38:39.787Z,99043.13
2019-05-20T04:41:09.190Z,99036.48
2019-05-20T04:43:38.556Z,99041.92
2019-05-20T04:46:07.948Z,99046.50
2019-05-20T04:48:37.489Z,99042.17
2019-05-20T04:51:06.836Z,99028.72
2019-05-20T04:53:36.169Z,99021.60
2019-05-20T04:56:05.582Z,99026.70
2019-05-20T04:58:34.948Z,99029.67
2019-05-20T05:01:04.399Z,99026.75
2019-05-20T05:03:33.649Z,99026.27
2019-05-20T05:06:03.111Z,99020.55
2019-05-20T05:08:32.493Z,99025.00
2019-05-20T05:11:01.896Z,99027.27
2019-05-20T05:13:31.263Z,99037.90
2019-05-20T05:16:00.627Z,99032.64
2019-05-20T05:18:30.019Z,99033.11
2019-05-20T05:20:59.532Z,99033.75
2019-05-20T05:23:28.836Z,99040.44
2019-05-20T05:25:58.326Z,99042.68
2019-05-20T05:28:27.794Z,99044.94
2019-05-20T05:30:57.296Z,99060.00
2019-05-20T05:33:26.703Z,99056.87
2019-05-20T05:35:56.066Z,99066.51
2019-05-20T05:38:25.432Z,99063.71
2019-05-20T05:40:54.754Z,99069.35
2019-05-20T05:43:24.131Z,99073.84
2019-05-20T05:45:53.509Z,99073.56
2019-05-20T05:48:22.899Z,99080.79
2019-05-20T05:50:52.268Z,99075.48
2019-05-20T05:53:21.624Z,99068.69
2019-05-20T05:55:51.030Z,99085.92
2019-05-20T05:58:20.431Z,99084.73
2019-05-20T06:00:49.771Z,99091.96
2019-05-20T06:03:19.178Z,99085.94
2019-05-20T06:05:48.469Z,99094.30
2019-05-20T06:08:17.868Z,99096.40
2019-05-20T06:10:47.170Z,99097.80
2019-05-20T06:13:16.471Z,99094.72
2019-05-20T06:15:45.879Z,99097.29
2019-05-20T06:18:15.239Z,99096.13
2019-05-20T06:20:44.546Z,99100.73
2019-05-20T06:23:13.947Z,99101.23
2019-05-20T06:25:43.299Z,99099.97
2019-05-20T06:28:31.085Z,99107.55
2019-05-20T06:31:00.491Z,99109.63
2019-05-20T06:33:29.785Z,99108.14
2019-05-20T06:35:59.484Z,99106.49
2019-05-20T06:38:36.816Z,99113.06
2019-05-20T06:41:07.851Z,99114.17
2019-05-20T06:43:37.200Z,99114.20
2019-05-20T06:46:06.582Z,99116.02
2019-05-20T06:48:36.000Z,99113.91
2019-05-20T06:51:05.665Z,99107.86
2019-05-20T06:53:35.093Z,99102.08
2019-05-20T06:56:04.483Z,99100.84
2019-05-20T06:58:33.771Z,99109.77
2019-05-20T07:01:03.159Z,99109.27
2019-05-20T07:03:32.871Z,99109.86
2019-05-20T07:06:03.097Z,99108.94
2019-05-20T07:08:32.511Z,99105.46
2019-05-20T07:11:01.971Z,99101.73
2019-05-20T07:13:31.282Z,99108.20
2019-05-20T07:16:00.655Z,99105.23
2019-05-20T07:18:30.143Z,99114.75
2019-05-20T07:20:59.509Z,99113.44
2019-05-20T07:23:28.820Z,99116.84
2019-05-20T07:25:58.170Z,99114.06
2019-05-20T07:28:27.479Z,99110.10
2019-05-20T07:30:56.847Z,99112.91
2019-05-20T07:33:27.073Z,99111.16
2019-05-20T07:35:56.382Z,99111.22
2019-05-20T07:38:25.677Z,99112.55
2019-05-20T07:40:55.071Z,99108.81
2019-05-20T07:43:24.512Z,99112.58
2019-05-20T07:45:54.144Z,99115.13
2019-05-20T07:48:24.113Z,99112.81
2019-05-20T07:50:54.067Z,99117.84
2019-05-20T07:53:24.431Z,99128.55
2019-05-20T07:55:56.755Z,99128.42
2019-05-20T07:58:29.261Z,99122.06
2019-05-20T08:00:58.618Z,99130.73
2019-05-20T08:03:28.014Z,99124.83
2019-05-20T08:05:57.391Z,99128.92
2019-05-20T08:08:26.808Z,99129.23
2019-05-20T08:10:56.193Z,99134.64
2019-05-20T08:13:25.553Z,99138.16
2019-05-20T08:15:54.921Z,99141.86
2019-05-20T08:18:24.353Z,99141.44
2019-05-20T08:20:53.715Z,99151.52
2019-05-20T08:23:24.580Z,99147.21
2019-05-20T08:25:54.027Z,99147.64
2019-05-20T08:28:23.429Z,99154.74
2019-05-20T08:30:52.864Z,99139.20
2019-05-20T08:33:22.286Z,99145.11
2019-05-20T08:35:51.839Z,99157.32
2019-05-20T08:38:21.379Z,99153.77
2019-05-20T08:40:50.777Z,99148.16
2019-05-20T08:43:20.062Z,99152.84
2019-05-20T08:45:51.498Z,99150.10
2019-05-20T08:48:21.046Z,99146.84
2019-05-20T08:50:50.435Z,99143.98
2019-05-20T08:53:19.891Z,99148.27
2019-05-20T08:55:49.395Z,99142.47
2019-05-20T08:58:18.795Z,99140.28
2019-05-20T09:00:48.151Z,99137.41
2019-05-20T09:03:17.567Z,99138.52
2019-05-20T09:05:46.869Z,99137.67
2019-05-20T09:08:16.236Z,99133.06
2019-05-20T09:10:45.599Z,99135.88
2019-05-20T09:13:14.976Z,99132.20
2019-05-20T09:15:45.590Z,99140.25
2019-05-20T09:18:14.812Z,99130.41
2019-05-20T09:20:44.227Z,99140.20
2019-05-20T09:23:13.618Z,99140.68
2019-05-20T09:25:42.926Z,99138.40
2019-05-20T09:28:12.394Z,99154.63
2019-05-20T09:30:42.457Z,99142.29
2019-05-20T09:33:11.933Z,99150.11
2019-05-20T09:35:41.635Z,99158.31
2019-05-20T09:38:20.324Z,99164.44
2019-05-20T09:40:48.020Z,99153.56
2019-05-20T09:43:17.615Z,99162.16
2019-05-20T09:45:47.011Z,99158.98
2019-05-20T09:48:16.420Z,99162.74
2019-05-20T09:50:45.787Z,99167.59
2019-05-20T09:53:15.098Z,99162.56
2019-05-20T09:55:44.521Z,99162.94
2019-05-20T09:58:13.957Z,99154.39
2019-05-20T10:00:43.350Z,99147.63
2019-05-20T10:03:12.763Z,99154.48
2019-05-20T10:05:42.140Z,99147.34
2019-05-20T10:08:11.508Z,99147.14
2019-05-20T10:10:40.923Z,99146.16
2019-05-20T10:13:10.344Z,99138.08
2019-05-20T10:15:39.695Z,99148.48
2019-05-20T10:18:09.099Z,99138.75
2019-05-20T10:20:38.450Z,99151.36
2019-05-20T10:23:07.868Z,99149.86
2019-05-20T10:25:37.267Z,99150.19
2019-05-20T10:28:06.642Z,99151.44
2019-05-20T10:30:36.007Z,99146.91
2019-05-20T10:33:09.262Z,99140.37
2019-05-20T10:35:36.463Z,99132.75
2019-05-20T10:38:05.860Z,99136.09
2019-05-20T10:40:35.506Z,99136.93
2019-05-20T10:43:04.946Z,99127.09
2019-05-20T10:45:34.739Z,99130.41
2019-05-20T10:48:08.606Z,99131.49
2019-05-20T10:50:35.752Z,99122.19
2019-05-20T10:53:05.317Z,99114.03
2019-05-20T10:55:34.819Z,99112.62
2019-05-20T10:58:04.238Z,99108.50
2019-05-20T11:00:33.606Z,99100.20
2019-05-20T11:03:03.052Z,99104.61
2019-05-20T11:05:32.503Z,99100.11
2019-05-20T11:08:01.879Z,99091.28
2019-05-20T11:10:31.568Z,99109.27
2019-05-20T11:13:01.074Z,99096.69
2019-05-20T11:15:30.471Z,99110.36
2019-05-20T11:17:59.860Z,99123.55
2019-05-20T11:20:28.972Z,99136.72
2019-05-20T11:23:01.005Z,99146.43
2019-05-20T11:25:29.320Z,99137.36
2019-05-20T11:27:58.598Z,99126.38
2019-05-20T11:30:27.987Z,99128.48
2019-05-20T11:32:57.348Z,99123.57
2019-05-20T11:35:26.749Z,99137.51
2019-05-20T11:37:56.064Z,99145.56
2019-05-20T11:40:25.709Z,99128.89
2019-05-20T11:43:13.231Z,99135.31
2019-05-20T11:45:44.600Z,99131.48
2019-05-20T11:48:13.969Z,99127.31
2019-05-20T11:50:43.376Z,99129.16
2019-05-20T11:53:12.762Z,99123.56
2019-05-20T11:55:42.061Z,99127.62
2019-05-20T11:58:17.154Z,99123.27
2019-05-20T12:00:46.518Z,99132.42
2019-05-20T12:03:15.834Z,99140.41
2019-05-20T12:05:45.219Z,99134.92
2019-05-20T12:08:14.597Z,99134.77
2019-05-20T12:10:44.387Z,99146.67
2019-05-20T12:13:13.753Z,99144.38
2019-05-20T12:15:43.070Z,99148.50
2019-05-20T12:18:12.430Z,99136.45
2019-05-20T12:20:41.813Z,99132.19
2019-05-20T12:23:11.126Z,99121.83
2019-05-20T12:25:40.506Z,99129.22
2019-05-20T12:28:09.843Z,99126.09
2019-05-20T12:30:39.296Z,99121.76
2019-05-20T12:33:18.612Z,99104.29
2019-05-20T12:35:39.676Z,99103.02
2019-05-20T12:38:09.020Z,99105.33
2019-05-20T12:40:38.343Z,99104.19
2019-05-20T12:43:07.748Z,99102.02
2019-05-20T12:45:37.156Z,99108.67
2019-05-20T12:48:06.817Z,99117.34
2019-05-20T12:50:36.195Z,99107.45
2019-05-20T12:53:05.671Z,99103.80
2019-05-20T12:55:35.142Z,99103.97
2019-05-20T12:58:21.262Z,99093.00
2019-05-20T13:00:51.146Z,99090.34
2019-05-20T13:03:20.616Z,99094.55
2019-05-20T13:05:50.198Z,99095.09
2019-05-20T13:08:19.580Z,99098.00
2019-05-20T13:10:48.990Z,99092.02
2019-05-20T13:13:21.162Z,99089.33
2019-05-20T13:15:50.494Z,99081.01
2019-05-20T13:18:20.064Z,99078.85
2019-05-20T13:20:49.477Z,99091.83
2019-05-20T13:23:19.629Z,99093.39
2019-05-20T13:25:49.184Z,99096.46
2019-05-20T13:28:19.159Z,99101.03
2019-05-20T13:30:48.522Z,99098.00
2019-05-20T13:33:18.034Z,99094.96
2019-05-20T13:35:47.575Z,99094.78
2019-05-20T13:38:17.047Z,99095.75
2019-05-20T13:40:47.527Z,99099.55
2019-05-20T13:43:25.868Z,99101.63
2019-05-20T13:45:55.347Z,99103.81
2019-05-20T13:48:24.937Z,99108.67
2019-05-20T13:50:54.387Z,99109.68
2019-05-20T13:53:23.874Z,99112.73
2019-05-20T13:55:53.401Z,99117.20
2019-05-20T13:58:23.328Z,99118.95
2019-05-20T14:00:52.766Z,99119.11
2019-05-20T14:03:22.116Z,99126.88
2019-05-20T14:05:51.863Z,99135.86
2019-05-20T14:08:21.348Z,99140.89
2019-05-20T14:11:03.666Z,99150.27
2019-05-20T14:13:27.794Z,99163.09
2019-05-20T14:15:57.327Z,99176.95
2019-05-20T14:20:54.942Z,99191.75
2019-05-20T14:23:24.300Z,99204.42
2019-05-20T14:25:53.657Z,99216.91
2019-05-20T14:28:23.088Z,99225.42
2019-05-20T14:30:52.918Z,99231.44
2019-05-20T14:33:22.265Z,99236.41
2019-05-20T14:35:51.735Z,99230.28
2019-05-20T14:38:21.199Z,99221.09
2019-05-20T14:40:50.741Z,99211.42
2019-05-20T14:43:20.115Z,99193.41
2019-05-20T14:45:49.443Z,99191.22
2019-05-20T14:48:19.472Z,99190.51
2019-05-20T14:50:48.967Z,99202.45
2019-05-20T14:53:18.442Z,99200.86
2019-05-20T14:55:47.818Z,99189.56
2019-05-20T14:58:17.139Z,99179.89
2019-05-20T15:00:46.439Z,99167.93
2019-05-20T15:03:15.877Z,99166.14
2019-05-20T15:05:45.386Z,99164.33
2019-05-20T15:08:14.741Z,99174.81
2019-05-20T15:10:44.754Z,99182.56
2019-05-20T15:15:56.504Z,99185.13
2019-05-20T15:18:25.978Z,99188.66
2019-05-20T15:20:55.434Z,99184.99
2019-05-20T15:23:25.199Z,99176.95
2019-05-20T15:25:54.884Z,99178.36
2019-05-20T15:28:36.337Z,99187.52
2019-05-20T15:31:05.686Z,99195.64
2019-05-20T15:33:35.033Z,99199.05
2019-05-20T15:36:04.686Z,99204.13
2019-05-20T15:38:34.057Z,99197.94
2019-05-20T15:41:03.464Z,99189.79
2019-05-20T15:43:41.557Z,99186.02
2019-05-20T15:46:11.013Z,99175.41
2019-05-20T15:48:40.417Z,99165.09
2019-05-20T15:51:10.180Z,99160.36
2019-05-20T15:53:39.544Z,99156.41
2019-05-20T15:56:08.993Z,99143.83
2019-05-20T15:58:38.616Z,99141.69
2019-05-20T16:01:07.983Z,99129.26
2019-05-20T16:03:37.309Z,99125.99
2019-05-20T16:06:06.703Z,99127.23
2019-05-20T16:08:36.102Z,99123.35
2019-05-20T16:11:06.902Z,99128.92
2019-05-20T16:13:42.822Z,99124.32
2019-05-20T16:16:13.199Z,99129.58
2019-05-20T16:18:42.685Z,99132.02
2019-05-20T16:21:12.110Z,99135.57
2019-05-20T16:23:41.556Z,99137.19
2019-05-20T16:26:10.976Z,99135.05
2019-05-20T16:28:46.431Z,99146.45
2019-05-20T16:31:15.740Z,99144.45
2019-05-20T16:33:45.478Z,99151.64
2019-05-20T16:36:15.145Z,99151.14
2019-05-20T16:38:44.485Z,99153.35
2019-05-20T16:41:13.850Z,99160.50
2019-05-20T16:43:46.122Z,99182.38
2019-05-20T16:46:15.500Z,99207.67
2019-05-20T16:48:44.874Z,99223.55
2019-05-20T16:51:14.312Z,99222.09
2019-05-20T16:53:43.664Z,99232.40
2019-05-20T16:56:13.043Z,99239.75
2019-05-20T16:58:48.635Z,99253.66
2019-05-20T17:01:18.052Z,99273.43
2019-05-20T17:03:47.551Z,99260.51
2019-05-20T17:06:17.233Z,99276.50
2019-05-20T17:08:46.752Z,99289.31
2019-05-20T17:11:16.240Z,99292.27
2019-05-20T17:13:51.543Z,99286.66
2019-05-20T17:16:21.020Z,99295.90
2019-05-20T17:18:50.408Z,99283.23
2019-05-20T17:21:19.881Z,99277.23
2019-05-20T17:23:49.335Z,99274.87
2019-05-20T17:26:18.854Z,99271.73
2019-05-20T17:28:48.337Z,99263.69
2019-05-20T17:31:17.985Z,99264.79
2019-05-20T17:33:47.667Z,99261.98
2019-05-20T17:36:17.148Z,99264.00
2019-05-20T17:38:46.505Z,99255.05
2019-05-20T17:41:15.932Z,99263.41
2019-05-20T17:43:45.371Z,99260.18
2019-05-20T17:46:15.188Z,99257.93
2019-05-20T17:48:44.859Z,99252.55
2019-05-20T17:51:14.401Z,99254.20
2019-05-20T17:53:43.785Z,99259.90
2019-05-20T17:56:13.755Z,99266.12
2019-05-20T17:58:50.856Z,99255.81
2019-05-20T18:01:20.671Z,99249.30
2019-05-20T18:03:50.121Z,99260.30
2019-05-20T18:06:19.652Z,99270.59
2019-05-20T18:08:51.362Z,99279.05
2019-05-20T18:11:20.749Z,99273.45
2019-05-20T18:13:51.180Z,99265.67
2019-05-20T18:16:20.723Z,99280.20
2019-05-20T18:18:51.054Z,99290.66
2019-05-20T18:21:20.754Z,99300.45
2019-05-20T18:23:50.796Z,99315.32
2019-05-20T18:26:20.218Z,99315.77
2019-05-20T18:28:49.606Z,99315.72
2019-05-20T18:31:31.895Z,99309.99
2019-05-20T18:33:50.201Z,99310.69
2019-05-20T18:36:19.753Z,99312.28
2019-05-20T18:38:49.975Z,99312.03
2019-05-20T18:41:19.841Z,99309.48
2019-05-20T18:43:56.760Z,99308.81
2019-05-20T18:46:26.257Z,99308.24
2019-05-20T18:48:55.882Z,99310.30
2019-05-20T18:51:25.383Z,99311.76
2019-05-20T18:53:55.246Z,99316.17
2019-05-20T18:56:24.791Z,99314.00
2019-05-20T18:58:55.573Z,99311.83
2019-05-20T19:01:25.501Z,99305.73
2019-05-20T19:03:55.544Z,99303.70
2019-05-20T19:06:25.698Z,99303.64
2019-05-20T19:08:55.734Z,99308.34
2019-05-20T19:11:25.912Z,99318.93
2019-05-20T19:14:02.098Z,99322.04
2019-05-20T19:16:32.068Z,99320.59
2019-05-20T19:19:02.162Z,99329.52
2019-05-20T19:21:32.183Z,99327.05
2019-05-20T19:24:01.982Z,99331.11
2019-05-20T19:26:33.545Z,99332.22
2019-05-20T19:29:03.466Z,99338.42
2019-05-20T19:31:33.387Z,99341.17
2019-05-20T19:34:03.204Z,99336.56
2019-05-20T19:36:33.132Z,99340.06
2019-05-20T19:39:08.469Z,99347.19
2019-05-20T19:41:41.606Z,99350.58
2019-05-20T19:44:13.349Z,99342.97
2019-05-20T19:46:46.283Z,99335.98
2019-05-20T19:49:15.803Z,99340.64
2019-05-20T19:51:45.705Z,99333.80
2019-05-20T19:54:15.578Z,99336.41
2019-05-20T19:56:45.625Z,99341.13
2019-05-20T19:59:17.202Z,99343.22
2019-05-20T20:01:46.879Z,99347.73
2019-05-20T20:04:16.569Z,99351.11
2019-05-20T20:06:46.163Z,99355.66
2019-05-20T20:09:15.993Z,99346.95
2019-05-20T20:11:45.581Z,99348.39
2019-05-20T20:14:15.583Z,99344.13
2019-05-20T20:16:45.129Z,99344.27
2019-05-20T20:19:15.135Z,99339.20
2019-05-20T20:21:44.983Z,99333.30
2019-05-20T20:24:14.886Z,99328.69
2019-05-20T20:26:45.998Z,99329.04
2019-05-20T20:29:16.044Z,99340.14
2019-05-20T20:31:46.283Z,99341.73
2019-05-20T20:34:16.748Z,99340.70
2019-05-20T20:36:46.231Z,99336.61
2019-05-20T20:39:16.466Z,99339.78
2019-05-20T20:41:47.411Z,99345.20
2019-05-20T20:44:17.387Z,99343.95
2019-05-20T20:46:47.509Z,99347.47
2019-05-20T20:49:16.968Z,99347.07
2019-05-20T20:51:50.995Z,99340.97
2019-05-20T20:54:20.516Z,99349.20
2019-05-20T20:56:50.529Z,99350.28
2019-05-20T20:59:23.468Z,99355.28
2019-05-20T21:01:56.753Z,99356.39
2019-05-20T21:04:24.068Z,99362.07
2019-05-20T21:06:53.574Z,99357.12
2019-05-20T21:09:23.060Z,99364.95
2019-05-20T21:11:52.560Z,99367.09
2019-05-20T21:14:22.705Z,99369.89
2019-05-20T21:16:52.128Z,99374.83
2019-05-20T21:19:21.578Z,99372.22
2019-05-20T21:21:51.029Z,99370.92
2019-05-20T21:24:20.949Z,99377.44
2019-05-20T21:26:50.396Z,99379.09
2019-05-20T21:29:19.701Z,99382.65
2019-05-20T21:31:49.047Z,99378.60
2019-05-20T21:34:18.489Z,99378.14
2019-05-20T21:36:48.420Z,99375.86
2019-05-20T21:39:18.026Z,99380.89
2019-05-20T21:41:47.372Z,99381.43
2019-05-20T21:44:16.793Z,99383.68
2019-05-20T21:46:46.267Z,99378.01
2019-05-20T21:49:15.548Z,99381.78
2019-05-20T21:51:44.921Z,99380.20
2019-05-20T21:54:14.466Z,99387.05
2019-05-20T21:56:43.906Z,99387.89
2019-05-20T21:59:16.229Z,99392.27
2019-05-20T22:01:45.642Z,99391.45
2019-05-20T22:04:15.112Z,99389.47
2019-05-20T22:06:44.517Z,99394.55
2019-05-20T22:09:13.939Z,99396.17
2019-05-20T22:11:43.267Z,99397.16
2019-05-20T22:14:18.889Z,99401.88
2019-05-20T22:16:48.711Z,99399.48
2019-05-20T22:19:18.216Z,99398.51
2019-05-20T22:22:07.217Z,99403.05
2019-05-20T22:24:36.687Z,99400.79
2019-05-20T22:27:06.129Z,99405.73
2019-05-20T22:29:35.599Z,99403.31
2019-05-20T22:32:05.022Z,99405.19
2019-05-20T22:34:34.400Z,99405.78
2019-05-20T22:37:03.817Z,99406.63
2019-05-20T22:39:33.272Z,99399.97
2019-05-20T22:42:02.611Z,99401.46
2019-05-20T22:44:32.138Z,99399.70
2019-05-20T22:47:02.115Z,99404.64
2019-05-20T22:49:31.585Z,99395.83
2019-05-20T22:52:00.995Z,99392.41
2019-05-20T22:54:30.434Z,99387.83
2019-05-20T22:56:59.798Z,99392.55
2019-05-20T22:59:29.196Z,99395.83
2019-05-20T23:01:58.666Z,99399.28
2019-05-20T23:04:29.184Z,99390.30
2019-05-20T23:06:58.728Z,99391.25
2019-05-20T23:09:28.163Z,99392.83
2019-05-20T23:11:57.527Z,99395.92
2019-05-20T23:14:26.967Z,99394.05
2019-05-20T23:16:56.440Z,99393.59
2019-05-20T23:19:25.916Z,99392.61
2019-05-20T23:21:55.328Z,99394.19
2019-05-20T23:24:24.626Z,99386.94
2019-05-20T23:26:53.914Z,99390.00
2019-05-20T23:29:26.179Z,99387.53
2019-05-20T23:31:55.703Z,99382.95
2019-05-20T23:34:25.059Z,99381.91
2019-05-20T23:36:54.265Z,99387.12
2019-05-20T23:39:25.108Z,99386.09
2019-05-20T23:41:54.534Z,99387.67
2019-05-20T23:44:23.912Z,99385.34
2019-05-20T23:46:53.404Z,99381.84
2019-05-20T23:49:22.904Z,99385.07
2019-05-20T23:51:52.332Z,99384.03
2019-05-20T23:54:21.682Z,99382.65
2019-05-20T23:56:51.124Z,99384.36
2019-05-20T23:59:26.240Z,99380.85
